sensor_id;sensor_type;location;lat;lon;timestamp;pressure;altitude;pressure_sealevel;temperature;humidity
69127;BME280;56688;50.234;19.292;2023-01-16T00:01:13;97661.80;;;4.06;82.58
69127;BME280;56688;50.234;19.292;2023-01-16T00:03:40;97659.91;;;4.04;82.59
69127;BME280;56688;50.234;19.292;2023-01-16T00:06:07;97653.89;;;4.00;82.21
69127;BME280;56688;50.234;19.292;2023-01-16T00:08:33;97651.21;;;3.95;82.40
69127;BME280;56688;50.234;19.292;2023-01-16T00:11:00;97653.10;;;3.91;82.39
69127;BME280;56688;50.234;19.292;2023-01-16T00:13:27;97649.33;;;3.88;82.54
69127;BME280;56688;50.234;19.292;2023-01-16T00:15:54;97646.77;;;3.86;82.62
69127;BME280;56688;50.234;19.292;2023-01-16T00:18:21;97649.64;;;3.85;82.78
69127;BME280;56688;50.234;19.292;2023-01-16T00:20:47;97649.96;;;3.84;82.73
69127;BME280;56688;50.234;19.292;2023-01-16T00:23:15;97655.44;;;3.82;82.95
69127;BME280;56688;50.234;19.292;2023-01-16T00:25:43;97655.73;;;3.78;82.80
69127;BME280;56688;50.234;19.292;2023-01-16T00:28:11;97650.92;;;3.75;82.86
69127;BME280;56688;50.234;19.292;2023-01-16T00:30:39;97648.55;;;3.71;82.77
69127;BME280;56688;50.234;19.292;2023-01-16T00:33:06;97653.64;;;3.68;82.80
69127;BME280;56688;50.234;19.292;2023-01-16T00:35:33;97645.77;;;3.67;82.91
69127;BME280;56688;50.234;19.292;2023-01-16T00:38:00;97644.39;;;3.66;82.99
69127;BME280;56688;50.234;19.292;2023-01-16T00:40:28;97650.73;;;3.62;82.99
69127;BME280;56688;50.234;19.292;2023-01-16T00:42:55;97647.66;;;3.58;83.04
69127;BME280;56688;50.234;19.292;2023-01-16T00:45:21;97651.27;;;3.54;82.97
69127;BME280;56688;50.234;19.292;2023-01-16T00:47:49;97649.73;;;3.50;83.04
69127;BME280;56688;50.234;19.292;2023-01-16T00:50:15;97647.89;;;3.48;83.25
69127;BME280;56688;50.234;19.292;2023-01-16T00:52:42;97648.59;;;3.46;83.31
69127;BME280;56688;50.234;19.292;2023-01-16T00:55:09;97655.91;;;3.45;83.23
69127;BME280;56688;50.234;19.292;2023-01-16T00:57:36;97651.15;;;3.44;83.49
69127;BME280;56688;50.234;19.292;2023-01-16T01:00:03;97654.52;;;3.40;83.79
69127;BME280;56688;50.234;19.292;2023-01-16T01:02:30;97655.67;;;3.38;83.77
69127;BME280;56688;50.234;19.292;2023-01-16T01:04:57;97649.79;;;3.35;83.77
69127;BME280;56688;50.234;19.292;2023-01-16T01:07:24;97640.78;;;3.33;83.69
69127;BME280;56688;50.234;19.292;2023-01-16T01:09:51;97638.24;;;3.32;83.84
69127;BME280;56688;50.234;19.292;2023-01-16T01:12:18;97637.33;;;3.31;83.80
69127;BME280;56688;50.234;19.292;2023-01-16T01:14:44;97638.89;;;3.30;83.72
69127;BME280;56688;50.234;19.292;2023-01-16T01:17:11;97638.52;;;3.27;83.81
69127;BME280;56688;50.234;19.292;2023-01-16T01:19:38;97632.70;;;3.22;83.93
69127;BME280;56688;50.234;19.292;2023-01-16T01:22:05;97635.52;;;3.22;84.03
69127;BME280;56688;50.234;19.292;2023-01-16T01:24:32;97633.05;;;3.22;84.16
69127;BME280;56688;50.234;19.292;2023-01-16T01:26:58;97632.35;;;3.22;84.16
69127;BME280;56688;50.234;19.292;2023-01-16T01:29:25;97630.89;;;3.19;84.14
69127;BME280;56688;50.234;19.292;2023-01-16T01:31:52;97628.46;;;3.17;83.97
69127;BME280;56688;50.234;19.292;2023-01-16T01:34:19;97624.92;;;3.14;83.80
69127;BME280;56688;50.234;19.292;2023-01-16T01:36:46;97628.31;;;3.09;83.82
69127;BME280;56688;50.234;19.292;2023-01-16T01:39:12;97628.14;;;3.04;83.79
69127;BME280;56688;50.234;19.292;2023-01-16T01:41:39;97629.22;;;3.00;83.64
69127;BME280;56688;50.234;19.292;2023-01-16T01:47:06;97628.31;;;2.97;84.06
69127;BME280;56688;50.234;19.292;2023-01-16T01:49:33;97625.98;;;2.93;83.74
69127;BME280;56688;50.234;19.292;2023-01-16T01:52:03;97634.23;;;2.91;83.55
69127;BME280;56688;50.234;19.292;2023-01-16T01:54:35;97628.17;;;2.85;83.23
69127;BME280;56688;50.234;19.292;2023-01-16T01:57:10;97622.16;;;2.77;82.94
69127;BME280;56688;50.234;19.292;2023-01-16T01:59:41;97615.73;;;2.64;82.74
69127;BME280;56688;50.234;19.292;2023-01-16T02:02:11;97615.86;;;2.53;82.87
69127;BME280;56688;50.234;19.292;2023-01-16T02:04:42;97613.81;;;2.44;83.17
69127;BME280;56688;50.234;19.292;2023-01-16T02:07:12;97606.64;;;2.36;83.09
69127;BME280;56688;50.234;19.292;2023-01-16T02:09:40;97599.35;;;2.30;83.46
69127;BME280;56688;50.234;19.292;2023-01-16T02:12:09;97592.23;;;2.29;83.79
69127;BME280;56688;50.234;19.292;2023-01-16T02:14:38;97585.45;;;2.30;83.93
69127;BME280;56688;50.234;19.292;2023-01-16T02:17:08;97584.27;;;2.31;84.00
69127;BME280;56688;50.234;19.292;2023-01-16T02:20:09;97584.35;;;2.32;83.94
69127;BME280;56688;50.234;19.292;2023-01-16T02:25:35;97571.95;;;2.31;83.00
69127;BME280;56688;50.234;19.292;2023-01-16T02:33:30;97575.21;;;2.08;81.18
69127;BME280;56688;50.234;19.292;2023-01-16T02:38:47;97574.46;;;1.85;81.78
69127;BME280;56688;50.234;19.292;2023-01-16T02:41:26;97577.67;;;1.82;82.51
69127;BME280;56688;50.234;19.292;2023-01-16T02:52:30;97569.75;;;2.08;85.87
69127;BME280;56688;50.234;19.292;2023-01-16T02:55:04;97572.15;;;2.15;86.28
69127;BME280;56688;50.234;19.292;2023-01-16T02:57:38;97574.45;;;2.22;86.14
69127;BME280;56688;50.234;19.292;2023-01-16T03:00:08;97576.88;;;2.26;86.06
69127;BME280;56688;50.234;19.292;2023-01-16T03:02:36;97579.33;;;2.29;85.99
69127;BME280;56688;50.234;19.292;2023-01-16T03:05:03;97571.63;;;2.34;86.12
69127;BME280;56688;50.234;19.292;2023-01-16T03:18:35;97565.40;;;2.43;85.34
69127;BME280;56688;50.234;19.292;2023-01-16T03:23:53;97561.05;;;2.44;85.15
69127;BME280;56688;50.234;19.292;2023-01-16T03:26:28;97557.09;;;2.46;85.15
69127;BME280;56688;50.234;19.292;2023-01-16T03:29:03;97555.09;;;2.46;84.84
69127;BME280;56688;50.234;19.292;2023-01-16T03:31:48;97553.40;;;2.47;85.00
69127;BME280;56688;50.234;19.292;2023-01-16T03:34:34;97553.10;;;2.48;84.72
69127;BME280;56688;50.234;19.292;2023-01-16T03:37:09;97553.46;;;2.50;84.57
69127;BME280;56688;50.234;19.292;2023-01-16T03:39:43;97554.19;;;2.53;84.44
69127;BME280;56688;50.234;19.292;2023-01-16T03:42:15;97549.14;;;2.56;84.25
69127;BME280;56688;50.234;19.292;2023-01-16T03:44:50;97550.72;;;2.59;84.20
69127;BME280;56688;50.234;19.292;2023-01-16T03:47:23;97547.11;;;2.60;84.15
69127;BME280;56688;50.234;19.292;2023-01-16T03:49:55;97544.02;;;2.60;84.03
69127;BME280;56688;50.234;19.292;2023-01-16T03:52:29;97537.08;;;2.59;83.77
69127;BME280;56688;50.234;19.292;2023-01-16T03:57:40;97539.50;;;2.62;82.96
69127;BME280;56688;50.234;19.292;2023-01-16T04:00:11;97541.23;;;2.66;82.64
69127;BME280;56688;50.234;19.292;2023-01-16T04:05:43;97540.09;;;2.68;82.08
69127;BME280;56688;50.234;19.292;2023-01-16T04:08:19;97539.72;;;2.67;81.99
69127;BME280;56688;50.234;19.292;2023-01-16T04:10:49;97536.89;;;2.64;82.00
69127;BME280;56688;50.234;19.292;2023-01-16T04:13:22;97534.31;;;2.63;82.13
69127;BME280;56688;50.234;19.292;2023-01-16T04:15:55;97531.61;;;2.64;81.93
69127;BME280;56688;50.234;19.292;2023-01-16T04:18:26;97532.25;;;2.63;81.92
69127;BME280;56688;50.234;19.292;2023-01-16T04:21:25;97524.33;;;2.63;82.15
69127;BME280;56688;50.234;19.292;2023-01-16T04:23:53;97518.25;;;2.57;81.90
69127;BME280;56688;50.234;19.292;2023-01-16T04:26:22;97514.61;;;2.52;81.80
69127;BME280;56688;50.234;19.292;2023-01-16T04:28:49;97509.11;;;2.49;81.78
69127;BME280;56688;50.234;19.292;2023-01-16T04:31:23;97507.66;;;2.48;81.74
69127;BME280;56688;50.234;19.292;2023-01-16T04:33:50;97501.55;;;2.47;81.71
69127;BME280;56688;50.234;19.292;2023-01-16T04:36:19;97503.30;;;2.49;81.57
69127;BME280;56688;50.234;19.292;2023-01-16T04:38:46;97495.83;;;2.48;81.49
69127;BME280;56688;50.234;19.292;2023-01-16T04:41:13;97492.77;;;2.47;81.43
69127;BME280;56688;50.234;19.292;2023-01-16T04:44:01;97483.45;;;2.44;81.13
69127;BME280;56688;50.234;19.292;2023-01-16T04:46:28;97480.19;;;2.38;81.29
69127;BME280;56688;50.234;19.292;2023-01-16T04:48:55;97476.05;;;2.31;81.30
69127;BME280;56688;50.234;19.292;2023-01-16T04:51:23;97472.70;;;2.28;81.31
69127;BME280;56688;50.234;19.292;2023-01-16T04:53:50;97469.75;;;2.26;81.21
69127;BME280;56688;50.234;19.292;2023-01-16T04:56:17;97470.21;;;2.26;81.36
69127;BME280;56688;50.234;19.292;2023-01-16T04:58:44;97465.08;;;2.25;81.24
69127;BME280;56688;50.234;19.292;2023-01-16T05:01:11;97463.44;;;2.20;81.27
69127;BME280;56688;50.234;19.292;2023-01-16T05:03:38;97466.82;;;2.16;81.25
69127;BME280;56688;50.234;19.292;2023-01-16T05:06:05;97470.52;;;2.15;81.44
69127;BME280;56688;50.234;19.292;2023-01-16T05:08:32;97466.27;;;2.13;81.48
69127;BME280;56688;50.234;19.292;2023-01-16T05:10:59;97461.93;;;2.11;81.45
69127;BME280;56688;50.234;19.292;2023-01-16T05:13:28;97459.73;;;2.09;81.55
69127;BME280;56688;50.234;19.292;2023-01-16T05:15:55;97453.84;;;2.02;81.36
69127;BME280;56688;50.234;19.292;2023-01-16T05:18:23;97456.24;;;2.00;81.64
69127;BME280;56688;50.234;19.292;2023-01-16T05:20:50;97454.14;;;1.99;81.54
69127;BME280;56688;50.234;19.292;2023-01-16T05:23:17;97453.13;;;1.95;81.64
69127;BME280;56688;50.234;19.292;2023-01-16T05:25:44;97450.36;;;1.93;81.87
69127;BME280;56688;50.234;19.292;2023-01-16T05:28:11;97444.42;;;1.92;81.90
69127;BME280;56688;50.234;19.292;2023-01-16T05:30:38;97442.59;;;1.93;81.97
69127;BME280;56688;50.234;19.292;2023-01-16T05:33:07;97436.12;;;1.91;81.68
69127;BME280;56688;50.234;19.292;2023-01-16T05:35:34;97433.58;;;1.90;81.56
69127;BME280;56688;50.234;19.292;2023-01-16T05:38:00;97432.81;;;1.89;81.60
69127;BME280;56688;50.234;19.292;2023-01-16T05:40:27;97437.36;;;1.89;81.77
69127;BME280;56688;50.234;19.292;2023-01-16T05:42:54;97436.45;;;1.91;81.52
69127;BME280;56688;50.234;19.292;2023-01-16T05:45:21;97434.84;;;1.91;81.43
69127;BME280;56688;50.234;19.292;2023-01-16T05:47:48;97435.05;;;1.96;81.39
69127;BME280;56688;50.234;19.292;2023-01-16T05:50:15;97436.75;;;2.00;81.00
69127;BME280;56688;50.234;19.292;2023-01-16T05:52:41;97436.55;;;2.02;80.69
69127;BME280;56688;50.234;19.292;2023-01-16T05:55:08;97438.17;;;2.02;80.50
69127;BME280;56688;50.234;19.292;2023-01-16T05:57:35;97435.01;;;2.02;80.39
69127;BME280;56688;50.234;19.292;2023-01-16T06:00:03;97431.89;;;2.02;80.04
69127;BME280;56688;50.234;19.292;2023-01-16T06:02:31;97434.11;;;2.02;80.02
69127;BME280;56688;50.234;19.292;2023-01-16T06:04:58;97429.14;;;2.04;79.99
69127;BME280;56688;50.234;19.292;2023-01-16T06:07:25;97424.77;;;2.06;80.14
69127;BME280;56688;50.234;19.292;2023-01-16T06:09:52;97413.81;;;2.08;79.62
69127;BME280;56688;50.234;19.292;2023-01-16T06:12:19;97414.94;;;2.07;79.60
69127;BME280;56688;50.234;19.292;2023-01-16T06:14:46;97412.27;;;2.08;79.52
69127;BME280;56688;50.234;19.292;2023-01-16T06:17:15;97413.02;;;2.07;79.54
69127;BME280;56688;50.234;19.292;2023-01-16T06:19:43;97408.30;;;2.04;79.33
69127;BME280;56688;50.234;19.292;2023-01-16T06:22:12;97408.02;;;2.02;79.38
69127;BME280;56688;50.234;19.292;2023-01-16T06:24:39;97407.89;;;1.99;79.38
69127;BME280;56688;50.234;19.292;2023-01-16T06:27:06;97403.23;;;1.97;79.54
69127;BME280;56688;50.234;19.292;2023-01-16T06:29:33;97400.24;;;1.97;79.57
69127;BME280;56688;50.234;19.292;2023-01-16T06:32:00;97400.88;;;1.97;79.66
69127;BME280;56688;50.234;19.292;2023-01-16T06:34:27;97401.00;;;1.96;79.76
69127;BME280;56688;50.234;19.292;2023-01-16T06:36:54;97397.88;;;1.98;79.83
69127;BME280;56688;50.234;19.292;2023-01-16T06:39:21;97395.40;;;1.98;79.99
69127;BME280;56688;50.234;19.292;2023-01-16T06:41:48;97395.02;;;1.96;79.72
69127;BME280;56688;50.234;19.292;2023-01-16T06:44:14;97397.16;;;1.93;80.15
69127;BME280;56688;50.234;19.292;2023-01-16T06:46:42;97392.27;;;1.92;80.01
69127;BME280;56688;50.234;19.292;2023-01-16T06:49:10;97384.91;;;1.94;79.97
69127;BME280;56688;50.234;19.292;2023-01-16T06:51:37;97382.83;;;1.95;80.08
69127;BME280;56688;50.234;19.292;2023-01-16T06:54:04;97384.38;;;1.99;79.88
69127;BME280;56688;50.234;19.292;2023-01-16T06:56:31;97381.34;;;2.01;79.88
69127;BME280;56688;50.234;19.292;2023-01-16T06:58:58;97380.30;;;2.04;80.13
69127;BME280;56688;50.234;19.292;2023-01-16T07:01:25;97380.11;;;2.06;79.93
69127;BME280;56688;50.234;19.292;2023-01-16T07:03:53;97377.01;;;2.06;79.60
69127;BME280;56688;50.234;19.292;2023-01-16T07:06:20;97376.95;;;2.03;79.40
69127;BME280;56688;50.234;19.292;2023-01-16T07:08:46;97371.94;;;2.02;79.42
69127;BME280;56688;50.234;19.292;2023-01-16T07:11:18;97375.07;;;2.02;79.79
69127;BME280;56688;50.234;19.292;2023-01-16T07:13:45;97374.91;;;2.04;79.69
69127;BME280;56688;50.234;19.292;2023-01-16T07:16:14;97373.63;;;2.06;79.84
69127;BME280;56688;50.234;19.292;2023-01-16T07:18:59;97375.00;;;2.08;79.63
69127;BME280;56688;50.234;19.292;2023-01-16T07:21:43;97373.71;;;2.09;79.66
69127;BME280;56688;50.234;19.292;2023-01-16T07:24:29;97372.79;;;2.09;79.57
69127;BME280;56688;50.234;19.292;2023-01-16T07:26:59;97369.07;;;2.08;79.60
69127;BME280;56688;50.234;19.292;2023-01-16T07:29:28;97369.56;;;2.06;79.82
69127;BME280;56688;50.234;19.292;2023-01-16T07:31:57;97367.69;;;2.06;79.91
69127;BME280;56688;50.234;19.292;2023-01-16T07:34:26;97375.15;;;2.07;80.16
69127;BME280;56688;50.234;19.292;2023-01-16T07:36:53;97374.04;;;2.10;80.26
69127;BME280;56688;50.234;19.292;2023-01-16T07:39:20;97368.45;;;2.15;80.43
69127;BME280;56688;50.234;19.292;2023-01-16T07:41:47;97359.12;;;2.18;80.33
69127;BME280;56688;50.234;19.292;2023-01-16T07:44:23;97360.11;;;2.22;80.26
69127;BME280;56688;50.234;19.292;2023-01-16T07:46:50;97351.65;;;2.23;80.51
69127;BME280;56688;50.234;19.292;2023-01-16T07:49:17;97345.65;;;2.28;80.52
69127;BME280;56688;50.234;19.292;2023-01-16T07:51:44;97343.91;;;2.29;80.33
69127;BME280;56688;50.234;19.292;2023-01-16T07:54:11;97341.28;;;2.31;80.24
69127;BME280;56688;50.234;19.292;2023-01-16T07:56:38;97337.95;;;2.34;80.47
69127;BME280;56688;50.234;19.292;2023-01-16T07:59:05;97333.14;;;2.40;80.66
69127;BME280;56688;50.234;19.292;2023-01-16T08:01:32;97326.45;;;2.48;80.58
69127;BME280;56688;50.234;19.292;2023-01-16T08:03:59;97324.29;;;2.56;80.68
69127;BME280;56688;50.234;19.292;2023-01-16T08:06:26;97314.66;;;2.66;80.58
69127;BME280;56688;50.234;19.292;2023-01-16T08:08:53;97312.00;;;2.74;80.57
69127;BME280;56688;50.234;19.292;2023-01-16T08:11:20;97310.59;;;2.82;80.26
69127;BME280;56688;50.234;19.292;2023-01-16T08:14:03;97302.42;;;2.86;79.88
69127;BME280;56688;50.234;19.292;2023-01-16T08:16:31;97297.59;;;2.88;80.07
69127;BME280;56688;50.234;19.292;2023-01-16T08:18:59;97291.71;;;2.94;79.91
69127;BME280;56688;50.234;19.292;2023-01-16T08:21:26;97286.73;;;3.02;79.93
69127;BME280;56688;50.234;19.292;2023-01-16T08:23:53;97279.41;;;3.13;79.72
69127;BME280;56688;50.234;19.292;2023-01-16T08:26:21;97279.98;;;3.24;79.43
69127;BME280;56688;50.234;19.292;2023-01-16T08:28:48;97283.08;;;3.34;79.01
69127;BME280;56688;50.234;19.292;2023-01-16T08:31:15;97284.20;;;3.45;78.84
69127;BME280;56688;50.234;19.292;2023-01-16T08:33:44;97277.52;;;3.54;78.60
69127;BME280;56688;50.234;19.292;2023-01-16T08:36:13;97276.88;;;3.67;78.42
69127;BME280;56688;50.234;19.292;2023-01-16T08:38:43;97268.66;;;3.78;77.89
69127;BME280;56688;50.234;19.292;2023-01-16T08:41:10;97270.42;;;3.94;77.58
69127;BME280;56688;50.234;19.292;2023-01-16T08:43:57;97263.66;;;4.15;77.21
69127;BME280;56688;50.234;19.292;2023-01-16T08:46:40;97266.14;;;4.34;76.55
69127;BME280;56688;50.234;19.292;2023-01-16T08:49:22;97263.78;;;4.53;76.03
69127;BME280;56688;50.234;19.292;2023-01-16T08:52:06;97259.57;;;4.62;74.57
69127;BME280;56688;50.234;19.292;2023-01-16T08:54:33;97255.43;;;4.67;74.58
69127;BME280;56688;50.234;19.292;2023-01-16T08:57:00;97255.95;;;4.71;73.93
69127;BME280;56688;50.234;19.292;2023-01-16T08:59:27;97254.45;;;4.72;73.74
69127;BME280;56688;50.234;19.292;2023-01-16T09:02:02;97251.79;;;4.68;73.59
69127;BME280;56688;50.234;19.292;2023-01-16T09:04:49;97241.54;;;4.57;73.52
69127;BME280;56688;50.234;19.292;2023-01-16T09:07:16;97235.67;;;4.57;73.48
69127;BME280;56688;50.234;19.292;2023-01-16T09:09:43;97220.59;;;4.57;73.99
69127;BME280;56688;50.234;19.292;2023-01-16T09:12:11;97221.85;;;4.66;73.80
69127;BME280;56688;50.234;19.292;2023-01-16T09:14:54;97216.34;;;4.70;73.67
69127;BME280;56688;50.234;19.292;2023-01-16T09:17:23;97214.04;;;4.72;73.43
69127;BME280;56688;50.234;19.292;2023-01-16T09:19:50;97212.98;;;4.72;73.65
69127;BME280;56688;50.234;19.292;2023-01-16T09:22:17;97207.50;;;4.73;73.67
69127;BME280;56688;50.234;19.292;2023-01-16T09:24:44;97201.23;;;4.78;73.84
69127;BME280;56688;50.234;19.292;2023-01-16T09:27:11;97193.31;;;4.80;73.42
69127;BME280;56688;50.234;19.292;2023-01-16T09:29:41;97192.27;;;4.82;73.45
69127;BME280;56688;50.234;19.292;2023-01-16T09:32:08;97190.66;;;4.86;73.14
69127;BME280;56688;50.234;19.292;2023-01-16T09:34:37;97185.35;;;4.91;73.16
69127;BME280;56688;50.234;19.292;2023-01-16T09:37:05;97189.84;;;4.99;73.22
69127;BME280;56688;50.234;19.292;2023-01-16T09:39:32;97180.52;;;5.06;73.10
69127;BME280;56688;50.234;19.292;2023-01-16T09:45:10;97161.66;;;5.27;72.64
69127;BME280;56688;50.234;19.292;2023-01-16T09:47:41;97147.17;;;5.39;72.57
69127;BME280;56688;50.234;19.292;2023-01-16T09:50:15;97135.67;;;5.49;71.83
69127;BME280;56688;50.234;19.292;2023-01-16T09:52:48;97131.21;;;5.55;71.91
69127;BME280;56688;50.234;19.292;2023-01-16T09:55:38;97130.23;;;5.63;71.71
69127;BME280;56688;50.234;19.292;2023-01-16T09:58:23;97123.20;;;5.71;71.85
69127;BME280;56688;50.234;19.292;2023-01-16T10:01:11;97107.60;;;5.83;71.21
69127;BME280;56688;50.234;19.292;2023-01-16T10:03:39;97101.27;;;5.96;70.91
69127;BME280;56688;50.234;19.292;2023-01-16T10:09:04;97094.55;;;6.21;69.78
69127;BME280;56688;50.234;19.292;2023-01-16T10:11:43;97087.20;;;6.31;70.09
69127;BME280;56688;50.234;19.292;2023-01-16T10:14:26;97080.77;;;6.47;69.76
69127;BME280;56688;50.234;19.292;2023-01-16T10:17:14;97079.16;;;6.62;69.37
69127;BME280;56688;50.234;19.292;2023-01-16T10:19:51;97076.64;;;6.73;69.27
69127;BME280;56688;50.234;19.292;2023-01-16T10:22:44;97076.36;;;6.85;68.94
69127;BME280;56688;50.234;19.292;2023-01-16T10:30:40;97048.69;;;6.93;68.13
69127;BME280;56688;50.234;19.292;2023-01-16T10:33:18;97046.52;;;6.96;68.41
69127;BME280;56688;50.234;19.292;2023-01-16T10:35:49;97041.23;;;7.03;68.32
69127;BME280;56688;50.234;19.292;2023-01-16T10:38:22;97032.95;;;7.08;67.81
69127;BME280;56688;50.234;19.292;2023-01-16T10:41:14;97024.16;;;7.10;67.58
69127;BME280;56688;50.234;19.292;2023-01-16T10:44:10;97015.42;;;7.09;67.24
69127;BME280;56688;50.234;19.292;2023-01-16T10:46:54;97012.57;;;7.12;67.32
69127;BME280;56688;50.234;19.292;2023-01-16T10:49:37;97007.23;;;7.15;66.75
69127;BME280;56688;50.234;19.292;2023-01-16T10:52:04;97006.73;;;7.15;66.77
69127;BME280;56688;50.234;19.292;2023-01-16T10:54:31;96998.73;;;7.17;67.29
69127;BME280;56688;50.234;19.292;2023-01-16T10:56:58;96990.06;;;7.24;68.11
69127;BME280;56688;50.234;19.292;2023-01-16T10:59:32;96983.33;;;7.35;68.04
69127;BME280;56688;50.234;19.292;2023-01-16T11:02:08;96980.50;;;7.47;68.13
69127;BME280;56688;50.234;19.292;2023-01-16T11:04:40;96970.54;;;7.63;67.27
69127;BME280;56688;50.234;19.292;2023-01-16T11:07:14;96965.64;;;7.79;67.05
69127;BME280;56688;50.234;19.292;2023-01-16T11:09:43;96950.66;;;7.98;65.88
69127;BME280;56688;50.234;19.292;2023-01-16T11:12:19;96945.52;;;8.10;64.53
69127;BME280;56688;50.234;19.292;2023-01-16T11:15:12;96940.83;;;8.24;63.76
69127;BME280;56688;50.234;19.292;2023-01-16T11:17:55;96930.67;;;8.50;63.06
69127;BME280;56688;50.234;19.292;2023-01-16T11:20:40;96924.20;;;8.82;61.60
69127;BME280;56688;50.234;19.292;2023-01-16T11:23:20;96916.36;;;9.24;60.56
69127;BME280;56688;50.234;19.292;2023-01-16T11:25:49;96912.88;;;9.60;59.37
69127;BME280;56688;50.234;19.292;2023-01-16T11:28:22;96906.48;;;9.83;58.65
69127;BME280;56688;50.234;19.292;2023-01-16T11:30:55;96903.98;;;9.95;57.36
69127;BME280;56688;50.234;19.292;2023-01-16T11:33:26;96889.79;;;9.95;56.51
69127;BME280;56688;50.234;19.292;2023-01-16T11:35:57;96882.83;;;9.92;56.05
69127;BME280;56688;50.234;19.292;2023-01-16T11:38:26;96879.41;;;9.89;55.93
69127;BME280;56688;50.234;19.292;2023-01-16T11:40:56;96867.34;;;9.86;55.66
69127;BME280;56688;50.234;19.292;2023-01-16T11:43:26;96866.66;;;9.87;55.62
69127;BME280;56688;50.234;19.292;2023-01-16T11:46:30;96862.02;;;9.88;54.64
69127;BME280;56688;50.234;19.292;2023-01-16T11:49:04;96854.81;;;9.84;54.13
69127;BME280;56688;50.234;19.292;2023-01-16T11:51:31;96851.91;;;9.78;54.38
69127;BME280;56688;50.234;19.292;2023-01-16T11:54:00;96846.10;;;9.78;53.62
69127;BME280;56688;50.234;19.292;2023-01-16T11:59:37;96829.33;;;10.35;53.49
69127;BME280;56688;50.234;19.292;2023-01-16T12:04:55;96818.84;;;11.42;51.74
69127;BME280;56688;50.234;19.292;2023-01-16T12:07:46;96815.71;;;11.92;50.11
69127;BME280;56688;50.234;19.292;2023-01-16T12:13:02;96805.61;;;12.41;47.57
69127;BME280;56688;50.234;19.292;2023-01-16T12:15:52;96805.00;;;12.53;47.22
69127;BME280;56688;50.234;19.292;2023-01-16T12:21:08;96796.95;;;12.81;46.60
69127;BME280;56688;50.234;19.292;2023-01-16T12:23:52;96786.86;;;12.70;46.40
69127;BME280;56688;50.234;19.292;2023-01-16T12:26:26;96782.58;;;12.35;46.50
69127;BME280;56688;50.234;19.292;2023-01-16T12:29:07;96768.90;;;12.16;47.10
69127;BME280;56688;50.234;19.292;2023-01-16T12:34:35;96758.57;;;12.28;47.08
69127;BME280;56688;50.234;19.292;2023-01-16T12:45:10;96730.34;;;12.09;47.69
69127;BME280;56688;50.234;19.292;2023-01-16T12:48:02;96732.65;;;12.21;48.18
69127;BME280;56688;50.234;19.292;2023-01-16T12:58:49;96721.80;;;12.49;47.69
69127;BME280;56688;50.234;19.292;2023-01-16T13:01:20;96721.29;;;12.54;47.08
69127;BME280;56688;50.234;19.292;2023-01-16T13:06:32;96715.05;;;12.39;47.69
69127;BME280;56688;50.234;19.292;2023-01-16T13:09:01;96712.64;;;12.23;47.67
69127;BME280;56688;50.234;19.292;2023-01-16T13:11:38;96709.80;;;11.92;47.78
69127;BME280;56688;50.234;19.292;2023-01-16T13:14:31;96706.55;;;11.51;48.25
69127;BME280;56688;50.234;19.292;2023-01-16T13:17:11;96703.83;;;11.19;49.17
69127;BME280;56688;50.234;19.292;2023-01-16T13:19:56;96698.13;;;10.84;50.24
69127;BME280;56688;50.234;19.292;2023-01-16T13:22:29;96697.59;;;10.68;50.85
69127;BME280;56688;50.234;19.292;2023-01-16T13:25:09;96693.04;;;10.56;51.42
69127;BME280;56688;50.234;19.292;2023-01-16T13:27:42;96688.96;;;10.37;52.10
69127;BME280;56688;50.234;19.292;2023-01-16T13:30:13;96692.65;;;10.13;52.74
69127;BME280;56688;50.234;19.292;2023-01-16T13:32:50;96687.82;;;9.79;53.43
69127;BME280;56688;50.234;19.292;2023-01-16T13:43:38;96654.50;;;8.79;56.87
69127;BME280;56688;50.234;19.292;2023-01-16T13:46:21;96651.85;;;8.87;57.18
69127;BME280;56688;50.234;19.292;2023-01-16T13:48:51;96643.42;;;8.98;56.68
69127;BME280;56688;50.234;19.292;2023-01-16T13:51:21;96634.23;;;9.12;56.41
69127;BME280;56688;50.234;19.292;2023-01-16T13:53:54;96634.83;;;9.14;56.71
69127;BME280;56688;50.234;19.292;2023-01-16T13:56:23;96625.09;;;9.09;56.60
69127;BME280;56688;50.234;19.292;2023-01-16T13:58:59;96622.20;;;8.99;56.69
69127;BME280;56688;50.234;19.292;2023-01-16T14:06:50;96610.33;;;8.34;58.21
69127;BME280;56688;50.234;19.292;2023-01-16T14:12:20;96601.77;;;7.93;59.54
69127;BME280;56688;50.234;19.292;2023-01-16T14:14:50;96595.97;;;7.74;59.95
69127;BME280;56688;50.234;19.292;2023-01-16T14:23:29;96588.23;;;7.10;61.79
69127;BME280;56688;50.234;19.292;2023-01-16T14:26:19;96594.77;;;6.92;62.43
69127;BME280;56688;50.234;19.292;2023-01-16T14:28:48;96593.39;;;6.74;63.43
69127;BME280;56688;50.234;19.292;2023-01-16T14:31:21;96585.58;;;6.54;64.04
69127;BME280;56688;50.234;19.292;2023-01-16T14:33:49;96583.10;;;6.38;64.54
69127;BME280;56688;50.234;19.292;2023-01-16T14:36:18;96579.91;;;6.22;65.16
69127;BME280;56688;50.234;19.292;2023-01-16T14:38:47;96577.27;;;6.05;65.41
69127;BME280;56688;50.234;19.292;2023-01-16T14:41:17;96580.16;;;5.85;66.53
69127;BME280;56688;50.234;19.292;2023-01-16T14:44:20;96575.52;;;5.64;67.34
69127;BME280;56688;50.234;19.292;2023-01-16T14:55:24;96561.13;;;5.03;69.30
69127;BME280;56688;50.234;19.292;2023-01-16T14:57:54;96559.51;;;4.93;69.67
69127;BME280;56688;50.234;19.292;2023-01-16T15:00:34;96559.88;;;4.79;70.24
69127;BME280;56688;50.234;19.292;2023-01-16T15:03:08;96553.83;;;4.70;70.56
69127;BME280;56688;50.234;19.292;2023-01-16T15:05:45;96549.48;;;4.61;70.84
69127;BME280;56688;50.234;19.292;2023-01-16T15:08:25;96541.90;;;4.55;71.38
69127;BME280;56688;50.234;19.292;2023-01-16T15:10:55;96539.10;;;4.47;71.52
69127;BME280;56688;50.234;19.292;2023-01-16T15:13:25;96536.44;;;4.41;71.92
69127;BME280;56688;50.234;19.292;2023-01-16T15:16:01;96535.01;;;4.40;72.15
69127;BME280;56688;50.234;19.292;2023-01-16T15:18:29;96530.05;;;4.40;72.30
69127;BME280;56688;50.234;19.292;2023-01-16T15:21:15;96526.59;;;4.42;72.32